sensor_id;sensor_type;location;lat;lon;timestamp;pressure;altitude;pressure_sealevel;temperature;humidity
58658;BME280;44428;45.630;13.786;2022-07-24T00:00:08;101430.41;;;27.94;58.26
58658;BME280;44428;45.630;13.786;2022-07-24T00:02:40;101428.13;;;27.91;57.36
58658;BME280;44428;45.630;13.786;2022-07-24T00:05:06;101427.47;;;27.89;56.58
58658;BME280;44428;45.630;13.786;2022-07-24T00:07:32;101423.72;;;27.90;57.67
58658;BME280;44428;45.630;13.786;2022-07-24T00:10:00;101423.72;;;27.90;58.30
58658;BME280;44428;45.630;13.786;2022-07-24T00:12:27;101421.88;;;27.97;57.76
58658;BME280;44428;45.630;13.786;2022-07-24T00:14:52;101417.50;;;28.02;56.50
58658;BME280;44428;45.630;13.786;2022-07-24T00:17:18;101413.31;;;28.00;56.19
58658;BME280;44428;45.630;13.786;2022-07-24T00:19:44;101407.41;;;27.90;57.26
58658;BME280;44428;45.630;13.786;2022-07-24T00:22:09;101420.56;;;27.79;56.75
58658;BME280;44428;45.630;13.786;2022-07-24T00:24:35;101419.50;;;27.80;57.71
58658;BME280;44428;45.630;13.786;2022-07-24T00:27:01;101421.97;;;27.75;57.08
58658;BME280;44428;45.630;13.786;2022-07-24T00:29:28;101420.69;;;27.71;56.22
58658;BME280;44428;45.630;13.786;2022-07-24T00:31:53;101419.44;;;27.67;55.00
58658;BME280;44428;45.630;13.786;2022-07-24T00:34:19;101419.41;;;27.60;54.29
58658;BME280;44428;45.630;13.786;2022-07-24T00:36:45;101411.88;;;27.56;53.78
58658;BME280;44428;45.630;13.786;2022-07-24T00:39:11;101405.19;;;27.58;53.17
58658;BME280;44428;45.630;13.786;2022-07-24T00:41:37;101404.78;;;27.55;53.71
58658;BME280;44428;45.630;13.786;2022-07-24T00:44:08;101399.34;;;27.55;52.97
58658;BME280;44428;45.630;13.786;2022-07-24T00:46:39;101391.44;;;27.60;52.44
58658;BME280;44428;45.630;13.786;2022-07-24T00:49:09;101393.69;;;27.50;52.39
58658;BME280;44428;45.630;13.786;2022-07-24T00:51:35;101387.22;;;27.51;52.38
58658;BME280;44428;45.630;13.786;2022-07-24T00:54:04;101378.44;;;27.49;51.45
58658;BME280;44428;45.630;13.786;2022-07-24T00:56:30;101364.88;;;27.55;50.23
58658;BME280;44428;45.630;13.786;2022-07-24T00:58:56;101377.63;;;27.55;50.39
58658;BME280;44428;45.630;13.786;2022-07-24T01:01:22;101372.84;;;27.57;49.39
58658;BME280;44428;45.630;13.786;2022-07-24T01:03:48;101363.47;;;27.66;48.12
58658;BME280;44428;45.630;13.786;2022-07-24T01:06:14;101354.69;;;27.64;47.60
58658;BME280;44428;45.630;13.786;2022-07-24T01:08:40;101350.91;;;27.65;47.45
58658;BME280;44428;45.630;13.786;2022-07-24T01:11:09;101355.34;;;27.66;46.64
58658;BME280;44428;45.630;13.786;2022-07-24T01:13:39;101330.91;;;27.73;45.22
58658;BME280;44428;45.630;13.786;2022-07-24T01:16:06;101334.22;;;27.68;45.38
58658;BME280;44428;45.630;13.786;2022-07-24T01:18:33;101332.78;;;27.72;44.01
58658;BME280;44428;45.630;13.786;2022-07-24T01:20:58;101334.72;;;27.78;43.45
58658;BME280;44428;45.630;13.786;2022-07-24T01:23:24;101321.56;;;27.89;42.37
58658;BME280;44428;45.630;13.786;2022-07-24T01:25:50;101318.44;;;28.05;41.29
58658;BME280;44428;45.630;13.786;2022-07-24T01:28:16;101328.47;;;28.24;40.03
58658;BME280;44428;45.630;13.786;2022-07-24T01:30:42;101316.75;;;28.30;39.27
58658;BME280;44428;45.630;13.786;2022-07-24T01:33:07;101322.63;;;28.41;38.07
58658;BME280;44428;45.630;13.786;2022-07-24T01:35:33;101313.44;;;28.42;37.80
58658;BME280;44428;45.630;13.786;2022-07-24T01:37:59;101316.34;;;28.47;37.42
58658;BME280;44428;45.630;13.786;2022-07-24T01:40:25;101310.91;;;28.47;36.89
58658;BME280;44428;45.630;13.786;2022-07-24T01:42:51;101315.91;;;28.50;36.99
58658;BME280;44428;45.630;13.786;2022-07-24T01:45:17;101315.91;;;28.50;36.96
58658;BME280;44428;45.630;13.786;2022-07-24T01:47:43;101315.91;;;28.50;36.85
58658;BME280;44428;45.630;13.786;2022-07-24T01:50:10;101311.75;;;28.54;36.58
58658;BME280;44428;45.630;13.786;2022-07-24T01:52:36;101322.22;;;28.50;36.93
58658;BME280;44428;45.630;13.786;2022-07-24T01:55:03;101315.50;;;28.40;37.18
58658;BME280;44428;45.630;13.786;2022-07-24T01:57:29;101316.34;;;28.34;37.21
58658;BME280;44428;45.630;13.786;2022-07-24T01:59:54;101330.97;;;28.33;37.52
58658;BME280;44428;45.630;13.786;2022-07-24T02:02:20;101320.53;;;28.29;37.52
58658;BME280;44428;45.630;13.786;2022-07-24T02:04:46;101311.31;;;28.30;37.38
58658;BME280;44428;45.630;13.786;2022-07-24T02:07:11;101318.00;;;28.35;37.30
58658;BME280;44428;45.630;13.786;2022-07-24T02:09:37;101324.25;;;28.35;37.42
58658;BME280;44428;45.630;13.786;2022-07-24T02:12:03;101308.81;;;28.36;37.30
58658;BME280;44428;45.630;13.786;2022-07-24T02:14:29;101297.13;;;28.42;37.29
58658;BME280;44428;45.630;13.786;2022-07-24T02:16:54;101301.69;;;28.41;37.38
58658;BME280;44428;45.630;13.786;2022-07-24T02:19:20;101300.88;;;28.41;37.89
58658;BME280;44428;45.630;13.786;2022-07-24T02:21:46;101304.03;;;28.44;37.45
58658;BME280;44428;45.630;13.786;2022-07-24T02:24:11;101299.59;;;28.50;37.37
58658;BME280;44428;45.630;13.786;2022-07-24T02:26:37;101299.41;;;28.51;37.55
58658;BME280;44428;45.630;13.786;2022-07-24T02:29:03;101293.34;;;28.43;37.69
58658;BME280;44428;45.630;13.786;2022-07-24T02:31:29;101293.75;;;28.40;37.71
58658;BME280;44428;45.630;13.786;2022-07-24T02:33:54;101298.34;;;28.39;37.90
58658;BME280;44428;45.630;13.786;2022-07-24T02:36:20;101297.50;;;28.25;38.17
58658;BME280;44428;45.630;13.786;2022-07-24T02:38:46;101306.31;;;28.27;38.43
58658;BME280;44428;45.630;13.786;2022-07-24T02:41:12;101304.22;;;28.29;38.37
58658;BME280;44428;45.630;13.786;2022-07-24T02:43:37;101306.94;;;28.29;38.12
58658;BME280;44428;45.630;13.786;2022-07-24T02:46:03;101307.16;;;28.21;38.43
58658;BME280;44428;45.630;13.786;2022-07-24T02:48:29;101313.81;;;28.25;38.37
58658;BME280;44428;45.630;13.786;2022-07-24T02:50:55;101307.53;;;28.31;38.17
58658;BME280;44428;45.630;13.786;2022-07-24T02:53:20;101305.03;;;28.37;38.25
58658;BME280;44428;45.630;13.786;2022-07-24T02:55:46;101298.97;;;28.35;38.69
58658;BME280;44428;45.630;13.786;2022-07-24T02:58:12;101308.81;;;28.36;38.50
58658;BME280;44428;45.630;13.786;2022-07-24T03:00:38;101308.81;;;28.36;38.69
58658;BME280;44428;45.630;13.786;2022-07-24T03:03:04;101302.53;;;28.28;38.78
58658;BME280;44428;45.630;13.786;2022-07-24T03:05:29;101288.34;;;28.26;38.54
58658;BME280;44428;45.630;13.786;2022-07-24T03:07:55;101274.53;;;28.21;38.85
58658;BME280;44428;45.630;13.786;2022-07-24T03:10:21;101282.91;;;28.13;39.34
58658;BME280;44428;45.630;13.786;2022-07-24T03:12:47;101284.16;;;28.17;39.33
58658;BME280;44428;45.630;13.786;2022-07-24T03:15:14;101254.88;;;28.19;39.36
58658;BME280;44428;45.630;13.786;2022-07-24T03:17:48;101268.47;;;28.19;39.48
58658;BME280;44428;45.630;13.786;2022-07-24T03:20:14;101267.44;;;28.20;39.54
58658;BME280;44428;45.630;13.786;2022-07-24T03:22:40;101263.03;;;28.26;39.91
58658;BME280;44428;45.630;13.786;2022-07-24T03:25:06;101260.31;;;28.33;39.55
58658;BME280;44428;45.630;13.786;2022-07-24T03:27:31;101276.19;;;28.36;39.82
58658;BME280;44428;45.630;13.786;2022-07-24T03:29:57;101265.72;;;28.39;39.55
58658;BME280;44428;45.630;13.786;2022-07-24T03:32:23;101269.09;;;28.41;39.61
58658;BME280;44428;45.630;13.786;2022-07-24T03:34:49;101273.25;;;28.44;39.89
58658;BME280;44428;45.630;13.786;2022-07-24T03:37:14;101276.19;;;28.49;39.57
58658;BME280;44428;45.630;13.786;2022-07-24T03:39:40;101274.72;;;28.53;39.80
58658;BME280;44428;45.630;13.786;2022-07-24T03:42:06;101278.69;;;28.57;39.51
58658;BME280;44428;45.630;13.786;2022-07-24T03:44:31;101288.31;;;28.46;39.86
58658;BME280;44428;45.630;13.786;2022-07-24T03:46:57;101288.72;;;28.50;39.75
58658;BME280;44428;45.630;13.786;2022-07-24T03:49:23;101288.72;;;28.50;40.07
58658;BME280;44428;45.630;13.786;2022-07-24T03:51:49;101294.16;;;28.50;40.25
58658;BME280;44428;45.630;13.786;2022-07-24T03:54:14;101293.13;;;28.51;40.32
58658;BME280;44428;45.630;13.786;2022-07-24T03:56:50;101292.09;;;28.52;40.21
58658;BME280;44428;45.630;13.786;2022-07-24T03:59:17;101294.16;;;28.50;40.55
58658;BME280;44428;45.630;13.786;2022-07-24T04:01:43;101298.16;;;28.41;40.82
58658;BME280;44428;45.630;13.786;2022-07-24T04:04:09;101302.56;;;28.42;41.01
58658;BME280;44428;45.630;13.786;2022-07-24T04:06:35;101297.31;;;28.34;41.33
58658;BME280;44428;45.630;13.786;2022-07-24T04:09:03;101296.91;;;28.23;41.56
58658;BME280;44428;45.630;13.786;2022-07-24T04:11:29;101308.81;;;28.22;41.68
58658;BME280;44428;45.630;13.786;2022-07-24T04:13:55;101312.59;;;28.21;41.68
58658;BME280;44428;45.630;13.786;2022-07-24T04:16:21;101305.91;;;28.17;41.97
58658;BME280;44428;45.630;13.786;2022-07-24T04:18:47;101306.75;;;28.11;42.46
58658;BME280;44428;45.630;13.786;2022-07-24T04:21:12;101307.34;;;28.13;42.83
58658;BME280;44428;45.630;13.786;2022-07-24T04:23:38;101318.44;;;28.18;42.72
58658;BME280;44428;45.630;13.786;2022-07-24T04:26:04;101315.72;;;28.18;42.99
58658;BME280;44428;45.630;13.786;2022-07-24T04:28:30;101310.06;;;28.13;43.20
58658;BME280;44428;45.630;13.786;2022-07-24T04:30:56;101315.50;;;28.13;42.98
58658;BME280;44428;45.630;13.786;2022-07-24T04:33:22;101311.34;;;28.17;43.02
58658;BME280;44428;45.630;13.786;2022-07-24T04:35:48;101317.63;;;28.11;43.47
58658;BME280;44428;45.630;13.786;2022-07-24T04:38:13;101327.63;;;28.04;43.60
58658;BME280;44428;45.630;13.786;2022-07-24T04:40:40;101323.03;;;27.98;43.63
58658;BME280;44428;45.630;13.786;2022-07-24T04:43:06;101329.28;;;27.85;44.20
58658;BME280;44428;45.630;13.786;2022-07-24T04:45:31;101341.38;;;27.82;44.24
58658;BME280;44428;45.630;13.786;2022-07-24T04:47:57;101347.66;;;27.90;44.22
58658;BME280;44428;45.630;13.786;2022-07-24T04:50:23;101340.53;;;27.75;44.53
58658;BME280;44428;45.630;13.786;2022-07-24T04:52:53;101347.22;;;27.79;44.13
58658;BME280;44428;45.630;13.786;2022-07-24T04:55:19;101343.47;;;27.80;43.95
58658;BME280;44428;45.630;13.786;2022-07-24T04:57:44;101340.56;;;27.89;44.14
58658;BME280;44428;45.630;13.786;2022-07-24T05:00:12;101344.75;;;27.98;43.79
58658;BME280;44428;45.630;13.786;2022-07-24T05:02:38;101347.28;;;28.06;43.27
58658;BME280;44428;45.630;13.786;2022-07-24T05:05:05;101356.47;;;28.05;43.27
58658;BME280;44428;45.630;13.786;2022-07-24T05:07:31;101351.88;;;28.12;43.02
58658;BME280;44428;45.630;13.786;2022-07-24T05:09:57;101355.22;;;28.27;42.93
58658;BME280;44428;45.630;13.786;2022-07-24T05:12:24;101351.03;;;28.31;42.19
58658;BME280;44428;45.630;13.786;2022-07-24T05:14:50;101359.84;;;28.47;41.98
58658;BME280;44428;45.630;13.786;2022-07-24T05:17:15;101361.47;;;28.88;41.17
58658;BME280;44428;45.630;13.786;2022-07-24T05:19:41;101365.38;;;29.18;40.83
58658;BME280;44428;45.630;13.786;2022-07-24T05:22:07;101364.31;;;29.19;40.51
58658;BME280;44428;45.630;13.786;2022-07-24T05:24:33;101366.25;;;29.06;40.35
58658;BME280;44428;45.630;13.786;2022-07-24T05:26:58;101367.69;;;28.95;40.89
58658;BME280;44428;45.630;13.786;2022-07-24T05:29:24;101376.50;;;28.97;40.58
58658;BME280;44428;45.630;13.786;2022-07-24T05:31:50;101379.84;;;28.99;40.91
58658;BME280;44428;45.630;13.786;2022-07-24T05:34:20;101376.28;;;28.98;40.81
58658;BME280;44428;45.630;13.786;2022-07-24T05:36:47;101367.72;;;29.02;40.44
58658;BME280;44428;45.630;13.786;2022-07-24T05:39:12;101376.47;;;29.10;40.57
58658;BME280;44428;45.630;13.786;2022-07-24T05:41:38;101367.72;;;29.08;40.08
58658;BME280;44428;45.630;13.786;2022-07-24T05:44:04;101386.91;;;29.27;40.09
58658;BME280;44428;45.630;13.786;2022-07-24T05:46:30;101382.25;;;29.34;40.23
58658;BME280;44428;45.630;13.786;2022-07-24T05:48:56;101384.53;;;29.43;40.11
58658;BME280;44428;45.630;13.786;2022-07-24T05:51:22;101383.75;;;29.30;40.61
58658;BME280;44428;45.630;13.786;2022-07-24T05:53:47;101391.50;;;29.33;40.30
58658;BME280;44428;45.630;13.786;2022-07-24T05:56:13;101392.22;;;29.53;39.83
58658;BME280;44428;45.630;13.786;2022-07-24T05:58:39;101383.34;;;29.78;39.39
58658;BME280;44428;45.630;13.786;2022-07-24T06:01:05;101374.63;;;30.26;38.73
58658;BME280;44428;45.630;13.786;2022-07-24T06:03:30;101376.31;;;30.27;38.71
58658;BME280;44428;45.630;13.786;2022-07-24T06:05:56;101375.84;;;30.80;37.54
58658;BME280;44428;45.630;13.786;2022-07-24T06:08:22;101366.41;;;30.57;37.57
58658;BME280;44428;45.630;13.786;2022-07-24T06:10:47;101375.41;;;31.01;37.07
58658;BME280;44428;45.630;13.786;2022-07-24T06:13:13;101364.25;;;31.70;35.61
58658;BME280;44428;45.630;13.786;2022-07-24T06:15:39;101376.06;;;32.24;34.88
58658;BME280;44428;45.630;13.786;2022-07-24T06:18:04;101362.81;;;32.63;34.19
58658;BME280;44428;45.630;13.786;2022-07-24T06:20:30;101368.22;;;33.10;33.14
58658;BME280;44428;45.630;13.786;2022-07-24T06:22:56;101368.16;;;33.34;32.68
58658;BME280;44428;45.630;13.786;2022-07-24T06:25:22;101377.53;;;33.09;33.20
58658;BME280;44428;45.630;13.786;2022-07-24T06:27:49;101377.28;;;33.80;32.00
58658;BME280;44428;45.630;13.786;2022-07-24T06:30:17;101380.88;;;34.26;31.56
58658;BME280;44428;45.630;13.786;2022-07-24T06:32:43;101391.91;;;34.31;31.68
58658;BME280;44428;45.630;13.786;2022-07-24T06:35:10;101380.50;;;33.48;32.65
58658;BME280;44428;45.630;13.786;2022-07-24T06:37:36;101382.53;;;33.12;33.61
58658;BME280;44428;45.630;13.786;2022-07-24T06:40:02;101391.06;;;33.27;33.52
58658;BME280;44428;45.630;13.786;2022-07-24T06:42:28;101395.59;;;33.10;33.00
58658;BME280;44428;45.630;13.786;2022-07-24T06:44:54;101396.09;;;33.07;33.69
58658;BME280;44428;45.630;13.786;2022-07-24T06:47:19;101409.28;;;33.22;33.11
58658;BME280;44428;45.630;13.786;2022-07-24T06:49:45;101395.16;;;32.90;33.55
58658;BME280;44428;45.630;13.786;2022-07-24T06:52:11;101395.16;;;32.66;33.93
58658;BME280;44428;45.630;13.786;2022-07-24T06:54:37;101396.53;;;32.33;34.46
58658;BME280;44428;45.630;13.786;2022-07-24T06:57:02;101395.81;;;32.26;35.49
58658;BME280;44428;45.630;13.786;2022-07-24T06:59:28;101392.22;;;32.14;35.20
58658;BME280;44428;45.630;13.786;2022-07-24T07:01:54;101394.22;;;32.72;34.08
58658;BME280;44428;45.630;13.786;2022-07-24T07:04:20;101399.50;;;33.95;31.94
58658;BME280;44428;45.630;13.786;2022-07-24T07:06:46;101396.47;;;34.42;31.34
58658;BME280;44428;45.630;13.786;2022-07-24T07:09:12;101399.81;;;34.44;31.14
58658;BME280;44428;45.630;13.786;2022-07-24T07:11:37;101391.84;;;34.59;30.56
58658;BME280;44428;45.630;13.786;2022-07-24T07:14:03;101384.63;;;34.92;30.41
58658;BME280;44428;45.630;13.786;2022-07-24T07:16:29;101389.06;;;35.15;29.99
58658;BME280;44428;45.630;13.786;2022-07-24T07:18:54;101396.25;;;35.43;29.48
58658;BME280;44428;45.630;13.786;2022-07-24T07:21:20;101399.78;;;35.39;29.78
58658;BME280;44428;45.630;13.786;2022-07-24T07:23:46;101394.75;;;35.08;30.21
58658;BME280;44428;45.630;13.786;2022-07-24T07:26:12;101395.25;;;35.05;30.33
58658;BME280;44428;45.630;13.786;2022-07-24T07:28:37;101382.03;;;35.24;29.87
58658;BME280;44428;45.630;13.786;2022-07-24T07:31:03;101399.78;;;35.39;30.21
58658;BME280;44428;45.630;13.786;2022-07-24T07:33:29;101386.88;;;35.88;29.21
58658;BME280;44428;45.630;13.786;2022-07-24T07:35:55;101382.72;;;36.13;28.96
58658;BME280;44428;45.630;13.786;2022-07-24T07:38:20;101384.28;;;36.04;28.67
58658;BME280;44428;45.630;13.786;2022-07-24T07:40:46;101387.94;;;36.46;27.84
58658;BME280;44428;45.630;13.786;2022-07-24T07:43:12;101392.44;;;36.58;27.78
58658;BME280;44428;45.630;13.786;2022-07-24T07:45:38;101394.19;;;36.74;28.17
58658;BME280;44428;45.630;13.786;2022-07-24T07:48:04;101386.69;;;37.07;27.25
58658;BME280;44428;45.630;13.786;2022-07-24T07:50:29;101386.97;;;37.10;26.91
58658;BME280;44428;45.630;13.786;2022-07-24T07:52:55;101392.63;;;36.94;26.95
58658;BME280;44428;45.630;13.786;2022-07-24T07:55:21;101400.53;;;37.27;27.01
58658;BME280;44428;45.630;13.786;2022-07-24T07:57:47;101394.53;;;37.46;26.67
58658;BME280;44428;45.630;13.786;2022-07-24T08:00:14;101408.34;;;37.51;26.15
58658;BME280;44428;45.630;13.786;2022-07-24T08:02:40;101393.50;;;37.72;26.76
58658;BME280;44428;45.630;13.786;2022-07-24T08:05:07;101386.06;;;37.68;26.10
58658;BME280;44428;45.630;13.786;2022-07-24T08:07:33;101389.41;;;37.80;26.02
58658;BME280;44428;45.630;13.786;2022-07-24T08:09:59;101402.88;;;37.66;26.40
58658;BME280;44428;45.630;13.786;2022-07-24T08:12:24;101384.66;;;37.70;26.07
58658;BME280;44428;45.630;13.786;2022-07-24T08:14:50;101387.06;;;37.41;26.66
58658;BME280;44428;45.630;13.786;2022-07-24T08:17:16;101391.88;;;37.71;26.22
58658;BME280;44428;45.630;13.786;2022-07-24T08:19:41;101390.19;;;37.60;26.69
58658;BME280;44428;45.630;13.786;2022-07-24T08:22:07;101384.72;;;37.91;25.89
58658;BME280;44428;45.630;13.786;2022-07-24T08:24:33;101389.34;;;37.59;26.20
58658;BME280;44428;45.630;13.786;2022-07-24T08:26:59;101390.44;;;37.53;26.53
58658;BME280;44428;45.630;13.786;2022-07-24T08:29:26;101392.97;;;37.75;26.41
58658;BME280;44428;45.630;13.786;2022-07-24T08:31:52;101388.63;;;38.10;27.49
58658;BME280;44428;45.630;13.786;2022-07-24T08:34:18;101397.97;;;37.89;25.50
58658;BME280;44428;45.630;13.786;2022-07-24T08:36:43;101390.19;;;37.70;26.17
58658;BME280;44428;45.630;13.786;2022-07-24T08:39:14;101399.63;;;38.31;26.06
58658;BME280;44428;45.630;13.786;2022-07-24T08:41:43;101391.91;;;38.53;24.58
58658;BME280;44428;45.630;13.786;2022-07-24T08:44:10;101392.41;;;38.81;24.14
58658;BME280;44428;45.630;13.786;2022-07-24T08:46:37;101394.69;;;38.48;25.22
58658;BME280;44428;45.630;13.786;2022-07-24T08:49:06;101402.69;;;38.49;25.65
58658;BME280;44428;45.630;13.786;2022-07-24T08:51:33;101400.69;;;38.91;24.53
58658;BME280;44428;45.630;13.786;2022-07-24T08:54:01;101396.28;;;38.69;25.22
58658;BME280;44428;45.630;13.786;2022-07-24T08:56:28;101402.84;;;39.04;25.21
58658;BME280;44428;45.630;13.786;2022-07-24T08:58:54;101410.34;;;38.99;25.08
58658;BME280;44428;45.630;13.786;2022-07-24T09:01:21;101396.75;;;39.07;24.29
58658;BME280;44428;45.630;13.786;2022-07-24T09:03:47;101397.78;;;39.22;24.38
58658;BME280;44428;45.630;13.786;2022-07-24T09:06:14;101392.38;;;39.01;25.05
58658;BME280;44428;45.630;13.786;2022-07-24T09:08:41;101385.63;;;39.28;24.63
58658;BME280;44428;45.630;13.786;2022-07-24T09:11:07;101397.50;;;39.73;24.03
58658;BME280;44428;45.630;13.786;2022-07-24T09:13:35;101391.41;;;39.26;24.01
58658;BME280;44428;45.630;13.786;2022-07-24T09:16:22;101387.28;;;39.29;24.32
58658;BME280;44428;45.630;13.786;2022-07-24T09:19:07;101392.38;;;39.01;24.52
58658;BME280;44428;45.630;13.786;2022-07-24T09:21:35;101389.66;;;38.86;24.93
58658;BME280;44428;45.630;13.786;2022-07-24T09:24:12;101395.19;;;38.86;24.35
58658;BME280;44428;45.630;13.786;2022-07-24T09:26:51;101384.66;;;38.83;24.42
58658;BME280;44428;45.630;13.786;2022-07-24T09:29:18;101396.84;;;38.77;24.52
58658;BME280;44428;45.630;13.786;2022-07-24T09:34:19;101388.78;;;38.96;24.33
58658;BME280;44428;45.630;13.786;2022-07-24T09:37:02;101380.69;;;39.14;23.51
58658;BME280;44428;45.630;13.786;2022-07-24T09:39:31;101385.00;;;39.41;23.01
58658;BME280;44428;45.630;13.786;2022-07-24T09:41:59;101399.06;;;39.50;23.48
58658;BME280;44428;45.630;13.786;2022-07-24T09:44:25;101390.34;;;39.72;22.57
58658;BME280;44428;45.630;13.786;2022-07-24T09:49:25;101383.16;;;39.71;23.32
58658;BME280;44428;45.630;13.786;2022-07-24T09:54:41;101385.50;;;40.27;23.45
58658;BME280;44428;45.630;13.786;2022-07-24T09:57:25;101384.81;;;39.72;24.40
58658;BME280;44428;45.630;13.786;2022-07-24T09:59:53;101385.19;;;39.55;24.49
58658;BME280;44428;45.630;13.786;2022-07-24T10:02:21;101384.22;;;39.30;25.56
58658;BME280;44428;45.630;13.786;2022-07-24T10:04:49;101384.00;;;39.16;24.72
58658;BME280;44428;45.630;13.786;2022-07-24T10:07:18;101385.31;;;39.84;24.85
58658;BME280;44428;45.630;13.786;2022-07-24T10:09:46;101385.09;;;40.10;24.32
58658;BME280;44428;45.630;13.786;2022-07-24T10:12:15;101380.06;;;40.17;23.97
58658;BME280;44428;45.630;13.786;2022-07-24T10:14:43;101391.44;;;40.44;24.04
58658;BME280;44428;45.630;13.786;2022-07-24T10:17:10;101383.09;;;39.86;24.39
58658;BME280;44428;45.630;13.786;2022-07-24T10:19:44;101379.84;;;39.69;24.00
58658;BME280;44428;45.630;13.786;2022-07-24T10:22:17;101374.25;;;40.47;23.96
58658;BME280;44428;45.630;13.786;2022-07-24T10:27:25;101366.47;;;40.49;23.50
58658;BME280;44428;45.630;13.786;2022-07-24T10:29:56;101365.44;;;40.69;23.79
58658;BME280;44428;45.630;13.786;2022-07-24T10:32:24;101356.13;;;40.84;23.05
58658;BME280;44428;45.630;13.786;2022-07-24T10:35:12;101357.19;;;40.88;23.22
58658;BME280;44428;45.630;13.786;2022-07-24T10:37:55;101361.44;;;41.05;22.78
58658;BME280;44428;45.630;13.786;2022-07-24T10:40:36;101360.47;;;40.90;23.31
58658;BME280;44428;45.630;13.786;2022-07-24T10:53:44;101349.25;;;40.52;22.49
58658;BME280;44428;45.630;13.786;2022-07-24T10:59:07;101342.88;;;40.28;23.08
58658;BME280;44428;45.630;13.786;2022-07-24T11:04:00;101340.53;;;40.40;21.45
58658;BME280;44428;45.630;13.786;2022-07-24T11:09:05;101331.13;;;40.89;21.48
58658;BME280;44428;45.630;13.786;2022-07-24T11:11:31;101335.47;;;40.95;21.75
58658;BME280;44428;45.630;13.786;2022-07-24T11:13:57;101332.16;;;40.45;21.95
58658;BME280;44428;45.630;13.786;2022-07-24T11:16:25;101327.31;;;40.32;22.86
58658;BME280;44428;45.630;13.786;2022-07-24T11:21:44;101327.09;;;41.01;22.27
58658;BME280;44428;45.630;13.786;2022-07-24T11:26:40;101330.28;;;41.89;20.77
58658;BME280;44428;45.630;13.786;2022-07-24T11:31:35;101327.38;;;41.94;20.70
58658;BME280;44428;45.630;13.786;2022-07-24T11:34:03;101323.53;;;42.22;21.08
58658;BME280;44428;45.630;13.786;2022-07-24T11:36:29;101316.31;;;42.07;20.23
58658;BME280;44428;45.630;13.786;2022-07-24T11:38:57;101310.34;;;41.81;20.43
58658;BME280;44428;45.630;13.786;2022-07-24T11:41:23;101325.88;;;41.50;21.00
58658;BME280;44428;45.630;13.786;2022-07-24T11:43:51;101311.19;;;41.49;21.09
58658;BME280;44428;45.630;13.786;2022-07-24T11:46:35;101302.63;;;41.78;20.88
58658;BME280;44428;45.630;13.786;2022-07-24T11:49:05;101298.75;;;41.79;19.97
58658;BME280;44428;45.630;13.786;2022-07-24T11:51:31;101307.72;;;41.57;20.35
58658;BME280;44428;45.630;13.786;2022-07-24T11:53:57;101298.75;;;41.47;20.94
58658;BME280;44428;45.630;13.786;2022-07-24T11:56:23;101289.19;;;41.15;20.99
58658;BME280;44428;45.630;13.786;2022-07-24T11:58:49;101286.63;;;41.00;21.36
58658;BME280;44428;45.630;13.786;2022-07-24T12:01:22;101290.25;;;41.19;20.89
58658;BME280;44428;45.630;13.786;2022-07-24T12:03:56;101286.03;;;41.59;20.91
58658;BME280;44428;45.630;13.786;2022-07-24T12:06:22;101279.56;;;41.97;20.82
58658;BME280;44428;45.630;13.786;2022-07-24T12:08:48;101285.66;;;41.99;20.61
58658;BME280;44428;45.630;13.786;2022-07-24T12:11:21;101282.72;;;41.76;20.19
58658;BME280;44428;45.630;13.786;2022-07-24T12:13:47;101277.44;;;41.61;20.30
58658;BME280;44428;45.630;13.786;2022-07-24T12:16:26;101282.25;;;41.69;20.26
58658;BME280;44428;45.630;13.786;2022-07-24T12:19:16;101272.34;;;41.49;20.09
58658;BME280;44428;45.630;13.786;2022-07-24T12:21:44;101282.63;;;41.11;20.60
58658;BME280;44428;45.630;13.786;2022-07-24T12:24:11;101274.72;;;40.99;20.32
58658;BME280;44428;45.630;13.786;2022-07-24T12:26:55;101272.31;;;40.92;20.75
58658;BME280;44428;45.630;13.786;2022-07-24T12:29:22;101275.25;;;41.20;20.62
58658;BME280;44428;45.630;13.786;2022-07-24T12:31:49;101266.78;;;41.30;20.68
58658;BME280;44428;45.630;13.786;2022-07-24T12:34:17;101268.09;;;41.19;20.75
58658;BME280;44428;45.630;13.786;2022-07-24T12:36:43;101261.34;;;41.25;21.03
58658;BME280;44428;45.630;13.786;2022-07-24T12:39:10;101255.91;;;41.53;20.29
58658;BME280;44428;45.630;13.786;2022-07-24T12:41:46;101266.41;;;41.56;19.82
58658;BME280;44428;45.630;13.786;2022-07-24T12:44:15;101261.88;;;41.60;20.05
58658;BME280;44428;45.630;13.786;2022-07-24T12:46:42;101255.56;;;41.73;19.71
58658;BME280;44428;45.630;13.786;2022-07-24T12:51:57;101246.78;;;41.99;19.99
58658;BME280;44428;45.630;13.786;2022-07-24T12:54:35;101241.84;;;41.96;19.72
58658;BME280;44428;45.630;13.786;2022-07-24T12:57:10;101245.97;;;42.12;20.03
58658;BME280;44428;45.630;13.786;2022-07-24T12:59:38;101236.72;;;42.03;19.23
58658;BME280;44428;45.630;13.786;2022-07-24T13:02:09;101239.06;;;41.96;18.92
58658;BME280;44428;45.630;13.786;2022-07-24T13:04:43;101234.81;;;41.84;19.70
58658;BME280;44428;45.630;13.786;2022-07-24T13:07:10;101233.63;;;41.91;19.66
58658;BME280;44428;45.630;13.786;2022-07-24T13:09:36;101232.81;;;42.04;19.48
58658;BME280;44428;45.630;13.786;2022-07-24T13:12:02;101226.22;;;42.00;19.52
58658;BME280;44428;45.630;13.786;2022-07-24T13:14:29;101231.28;;;41.98;19.13
58658;BME280;44428;45.630;13.786;2022-07-24T13:17:02;101231.59;;;42.10;19.61
58658;BME280;44428;45.630;13.786;2022-07-24T13:19:28;101227.00;;;41.86;19.44